Bladen County Hospital, NC

11:47 AM EDT on July 29, 2014 (GMT -0400)
Columbus County Municipal (KCPC) Elev 98 ft | 34.28 °N, 78.71 °W | Change Station

Current weather conditions updated 12 minutes ago

Clear
Clear
79 °F
Feels Like 79 °F
N
6
Wind Variable Wind from NE

Today is forecast to be Cooler than yesterday.

Today
High -- | Low -- °F
--% Chance of Precip.
Yesterday
High -- | Low -- °F
Precip. -- in
6:22 AM 8:19 PM
Waxing Crescent, 7% visible
Pressure 29.93 in
Visibility 10.0 miles
Clouds Clear
Dew Point 63 °F
Humidity 57%
Rainfall 0.00 in
Snow Depth Not available.
UV 10 out of 12
Pollen 3.70 out of 12
Air Quality Not available.
Flu Activity Not available.
METAR KCPC 291535Z AUTO 04005KT 10SM CLR 26/17 A2993 RMK AO2 T02620172

More Conditions Fewer Conditions

Pressure 29.93 in
Visibility 10.0 miles
Clouds Clear
Dew Point 63 °F
Humidity 57%
Rainfall 0.00 in
Snow Depth Not available.
UV 10 out of 12
Pollen 3.70 out of 12
Air Quality Not available.
Flu Activity Not available.
METAR KCPC 291535Z AUTO 04005KT 10SM CLR 26/17 A2993 RMK AO2 T02620172

More Conditions Fewer Conditions

10-Day Weather Forecast

Almanac

Astronomy

Jul. 29, 2014 Rise Set
Actual Time 6:22 AM EDT 8:19 PM EDT
Civil Twilight 5:54 AM EDT 8:46 PM EDT
Nautical Twilight 5:20 AM EDT 9:20 PM EDT
Astronomical Twilight 4:44 AM EDT 9:56 PM EDT
Moon 8:48 AM EDT 9:40 PM EDT
Length of Visible Light 14h 52m
Length of Day
13h 56m
Tomorrow will be 1m 33s shorter.
Waxing Crescent, 7% of the Moon is Illuminated
Today
Waxing Crescent
Aug 3
First Quarter
Aug 10
Full
Aug 17
Last Quarter
Aug 25
New

Today's Extremes

State Highs State Lows

Community

WunderPhotos

Upload Photos

1,738,770 photos uploaded!

Nearby

Snow Depth

Station Depth Elevation
No new snow has been reported.

Earthquake Activity

City Distance Mag. Time & Date
No recent earthquake activity has been reported nearby.
Minimum magnitude displayed is 2.5.

Coastal Water Temperatures

Place Temperature
No Stations Reporting

Nearby Weather Stations

Station Location Temp. Heat Index Dew Point Humidity Wind Precip. Elev Updated Type
CCSkywatch, Whiteville, NC 80.6 °F 82 °F 65 °F 59% NNE  at  2.0 mph 0.01 in / hr 91 ft 11:47 AM EDT Rapid Fire
Fayetteville Road, Lumberton, NC 81.4 °F 83 °F 65 °F 57% East  at  0.0 mph 0.00 in / hr 126 ft 11:47 AM EDT Rapid Fire
Saint Pauls, St. Pauls, NC 79.5 °F 81 °F 62 °F 56% South  at  4.0 mph 0.00 in / hr 190 ft 11:43 AM EDT Normal

Show More Stations Show Fewer Stations